Nearby METAR Reports

 

EBAW - Antwerpen, Belgium
Distance from station: NW 22km
Updated: 2019-02-20 20:50
Clear
Clear
 Wind from SSW
Wind: SSW 7 km/h
Temperature: 8°C
Wind Chill: 7°C
Dew Point: 4°C
Humidity: 76%
Barometer: 1024 hPa
Summary: Clear
Visibility: greater than 10 km
2019/02/20 19:50 EBAW 201950Z 20004KT CAVOK 08/04 Q1024 NOSIG
EBBR - Brussel, Belgium
Distance from station: SW 24km
Updated: 2019-02-20 20:20
Clear
Clear
 Wind from SW
Wind: SW 11 km/h
Temperature: 7°C
Wind Chill: 5°C
Dew Point: 3°C
Humidity: 76%
Barometer: 1024 hPa
Summary: Clear
Visibility: greater than 10 km
2019/02/20 19:20 EBBR 201920Z 22006KT CAVOK 07/03 Q1024 NOSIG
 
EBDT - Schaffen, Belgium
Distance from station: ESE 26km
Updated: 2019-02-20 20:55
Clear
Clear
 Wind from varies
Wind: varies 4 km/h
Temperature: 8°C
Dew Point: 4°C
Humidity: 76%
Barometer: 1025 hPa
Clouds: Clear
Visibility: 10 km
2019/02/20 19:55 EBDT 201955Z AUTO VRB02KT 9999 NCD 08/04 Q1025 BLU
EBBE - Beauvechain, Belgium
Distance from station: S 36km
Updated: 2019-02-20 20:55
Few Clouds
Few Clouds
 Wind from SSW
Wind: SSW 13 km/h
Temperature: 7°C
Wind Chill: 5°C
Dew Point: 3°C
Humidity: 76%
Barometer: 1025 hPa
Clouds: Few Clouds
Visibility: 10 km
Cloud details: Few Clouds 975 m
2019/02/20 19:55 EBBE 201955Z AUTO 21007KT 9999 FEW032/// 07/03 Q1025 BLU
 
EHWO - Woensdrecht Rnla, Netherlands
Distance from station: NNW 50km
Updated: 2019-02-20 20:55
Few Clouds
Few Clouds
 Wind from SW
Wind: SW 15 km/h
Temperature: 9°C
Wind Chill: 7°C
Dew Point: 5°C
Humidity: 76%
Barometer: 1023 hPa
Clouds: Few Clouds
Visibility: 10 km
Cloud details: Few Clouds 853 m
2019/02/20 19:55 EHWO 201955Z AUTO 22008KT 9999 FEW028 09/05 Q1023 BLU
EBBL - Kleine-Brogel, Belgium
Distance from station: ENE 54km
Updated: 2019-02-20 20:55
Clear
Clear
 Wind from SW
Wind: SW 9 km/h
Temperature: 8°C
Wind Chill: 6°C
Dew Point: 3°C
Humidity: 71%
Barometer: 1025 hPa
Clouds: Clear
Visibility: 10 km
2019/02/20 19:55 EBBL 201955Z AUTO 22005KT 9999 NCD 08/03 Q1025 BLU
 
EHGR - Gilze-Rijen Rnla, Netherlands
Distance from station: NNE 57km
Updated: 2019-02-20 20:55
Clear
Clear
 Wind from SSW
Wind: SSW 11 km/h
Temperature: 5°C
Wind Chill: 2°C
Dew Point: 1°C
Humidity: 76%
Barometer: 1024 hPa
Clouds: Clear
Visibility: 10 km
2019/02/20 19:55 EHGR 201955Z AUTO 20006KT 160V220 9999 NCD 05/01 Q1024 BLU 23006KT CAVOK
EHEH - Eindhoven Rnlafb, Netherlands
Distance from station: NE 63km
Updated: 2019-02-20 20:55
Clear
Clear
 Wind from SSW
Wind: SSW 6 km/h
Temperature: 6°C
Dew Point: 1°C
Humidity: 71%
Barometer: 1024 hPa
Clouds: Clear
Visibility: 10 km
2019/02/20 19:55 EHEH 201955Z AUTO 20003KT 9999 NCD 06/01 Q1024 BLU 20005KT CAVOK
 
EBCI - Charleroi, Belgium
Distance from station: SSW 70km
Updated: 2019-02-20 20:50
Mostly cloudy
Mostly cloudy
 Wind from S
Wind: S 9 km/h
Temperature: 8°C
Wind Chill: 6°C
Dew Point: 4°C
Humidity: 76%
Barometer: 1025 hPa
Clouds: Mostly cloudy
Visibility: 10 km
Cloud details: Partly cloudy 914 m
Mostly cloudy 1128 m
2019/02/20 19:50 EBCI 201950Z 19005KT 9999 SCT030 BKN037 08/04 Q1025 NOSIG
EBLG - Bierset, Belgium
Distance from station: SE 72km
Updated: 2019-02-20 20:50
Clear
Clear
 Wind from SSW
Wind: SSW 11 km/h
Temperature: 7°C
Wind Chill: 5°C
Dew Point: 3°C
Humidity: 76%
Barometer: 1025 hPa
Summary: Clear
Visibility: greater than 10 km
2019/02/20 19:50 EBLG 201950Z 21006KT CAVOK 07/03 Q1025 NOSIG